Time;durP1;ratioP1;P1;durP2;ratioP2;P2;SDS_P1;SDS_P2;PMS_P1;PMS_P2;Temp;Humidity;BMP_temperature;BMP_pressure;BME280_temperature;BME280_humidity;BME280_pressure;Samples;Min_cycle;Max_cycle;Signal;HPM_P1;HPM_P2
2022/01/22 00:00:44;;;;;;;34.65;4.32;;;6.40;99.90;;;;;;5054649;28;20519;-76
2022/01/22 00:03:10;;;;;;;18.00;3.10;;;6.40;99.90;;;;;;5056154;28;20119;-77
2022/01/22 00:05:36;;;;;;;23.98;2.80;;;6.40;99.90;;;;;;5049313;28;20478;-76
2022/01/22 00:08:03;;;;;;;24.27;3.15;;;6.40;99.90;;;;;;5053576;28;20044;-76
2022/01/22 00:10:28;;;;;;;16.35;2.28;;;6.40;99.90;;;;;;5061581;28;20127;-83
2022/01/22 00:15:30;;;;;;;20.13;2.50;;;6.40;99.90;;;;;;5049444;28;20057;-83
2022/01/22 00:17:57;;;;;;;30.17;3.78;;;6.50;99.90;;;;;;5051846;28;20053;-79
2022/01/22 00:20:25;;;;;;;14.25;2.17;;;6.40;99.90;;;;;;5059708;28;20048;-76
2022/01/22 00:22:52;;;;;;;20.90;2.63;;;6.50;99.90;;;;;;5055964;28;20053;-78
2022/01/22 00:25:21;;;;;;;21.73;3.03;;;6.50;99.90;;;;;;5067793;28;20438;-77
2022/01/22 00:27:49;;;;;;;14.45;2.15;;;6.50;99.90;;;;;;5061332;28;20380;-76
2022/01/22 00:30:18;;;;;;;17.35;1.95;;;6.50;99.90;;;;;;5050518;28;20061;-76
2022/01/22 00:32:44;;;;;;;12.88;1.85;;;6.50;99.90;;;;;;5019273;28;20053;-77
2022/01/22 00:35:10;;;;;;;21.20;2.63;;;6.50;99.90;;;;;;5059275;28;20055;-76
2022/01/22 00:37:38;;;;;;;16.75;1.92;;;6.50;99.90;;;;;;5053903;28;20072;-77
2022/01/22 00:40:05;;;;;;;15.70;1.92;;;6.50;99.90;;;;;;5046552;28;20145;-76
2022/01/22 00:42:34;;;;;;;14.05;2.35;;;6.50;99.90;;;;;;5051574;28;20061;-83
2022/01/22 00:45:01;;;;;;;12.88;2.10;;;6.50;99.90;;;;;;5049165;28;20098;-79
2022/01/22 00:47:27;;;;;;;15.50;2.33;;;6.50;99.90;;;;;;5085441;28;20123;-77
2022/01/22 00:49:53;;;;;;;15.27;2.10;;;6.50;99.90;;;;;;5055703;28;20123;-77
2022/01/22 00:52:18;;;;;;;17.10;2.42;;;6.50;99.90;;;;;;5058539;28;20056;-77
2022/01/22 00:54:44;;;;;;;20.42;2.38;;;6.50;99.90;;;;;;5048436;28;20560;-77
2022/01/22 00:57:10;;;;;;;16.70;2.33;;;6.50;99.90;;;;;;5048601;28;20053;-78
2022/01/22 00:59:35;;;;;;;15.80;2.83;;;6.50;99.90;;;;;;5049009;28;20072;-77
2022/01/22 01:02:02;;;;;;;14.98;3.55;;;6.50;99.90;;;;;;5051921;28;20047;-77
2022/01/22 01:04:28;;;;;;;16.50;3.00;;;6.50;99.90;;;;;;5051010;28;20051;-77
2022/01/22 01:06:54;;;;;;;18.58;2.65;;;6.50;99.90;;;;;;5067543;28;20202;-77
2022/01/22 01:09:20;;;;;;;18.88;3.03;;;6.60;99.90;;;;;;5044834;28;20099;-77
2022/01/22 01:11:53;;;;;;;26.98;3.50;;;6.50;99.90;;;;;;5060334;28;20505;-79
2022/01/22 01:14:27;;;;;;;19.30;3.03;;;6.50;99.90;;;;;;5057126;28;20056;-76
2022/01/22 01:33:17;;;;;;;11.23;2.25;;;6.60;99.90;;;;;;5055233;28;20049;-76
2022/01/22 01:35:43;;;;;;;18.25;3.97;;;6.60;99.90;;;;;;5053841;28;20059;-76
2022/01/22 01:38:09;;;;;;;15.60;2.65;;;6.60;99.90;;;;;;5058766;28;20049;-77
2022/01/22 01:40:39;;;;;;;15.52;2.38;;;6.70;99.90;;;;;;5066275;28;20049;-77
2022/01/22 01:43:11;;;;;;;19.58;4.65;;;6.60;99.90;;;;;;5052540;28;20124;-76
2022/01/22 01:45:37;;;;;;;19.73;2.70;;;6.60;99.90;;;;;;5047001;28;20497;-78
2022/01/22 01:48:08;;;;;;;14.57;2.90;;;6.60;99.90;;;;;;5051451;28;20045;-77
2022/01/22 01:50:37;;;;;;;17.42;3.00;;;6.60;99.90;;;;;;5051819;28;20053;-77
2022/01/22 01:53:20;;;;;;;23.52;2.55;;;6.60;99.90;;;;;;5047959;28;20056;-77
2022/01/22 01:58:25;;;;;;;12.30;1.92;;;6.60;99.90;;;;;;5009153;28;20084;-78
2022/01/22 02:00:52;;;;;;;21.65;3.83;;;6.60;99.90;;;;;;5031123;28;20170;-79
2022/01/22 02:03:18;;;;;;;8.93;1.40;;;6.70;99.90;;;;;;5024572;28;20450;-77
2022/01/22 02:05:44;;;;;;;12.05;2.13;;;6.70;99.90;;;;;;5025834;28;20072;-82
2022/01/22 02:08:12;;;;;;;12.57;1.70;;;6.70;99.90;;;;;;5006655;28;20049;-76
2022/01/22 02:10:44;;;;;;;11.32;1.60;;;6.60;99.90;;;;;;5048033;28;20049;-76
2022/01/22 02:24:11;;;;;;;10.35;1.48;;;6.60;99.90;;;;;;5032653;28;20115;-79
2022/01/22 02:26:37;;;;;;;11.27;2.38;;;6.60;99.90;;;;;;5027621;28;20474;-77
2022/01/22 02:29:03;;;;;;;13.38;2.10;;;6.60;99.90;;;;;;5044462;28;20498;-77
2022/01/22 02:31:43;;;;;;;9.75;2.00;;;6.60;99.90;;;;;;5034692;28;20056;-77
2022/01/22 02:37:01;;;;;;;9.25;1.75;;;6.60;99.90;;;;;;5024114;28;20450;-76
2022/01/22 02:39:40;;;;;;;12.18;2.08;;;6.60;99.90;;;;;;5037894;28;20054;-77
2022/01/22 02:42:07;;;;;;;13.82;2.10;;;6.60;99.90;;;;;;5015544;28;20371;-81
2022/01/22 02:44:34;;;;;;;12.50;2.00;;;6.60;99.90;;;;;;5035420;28;20511;-76
2022/01/22 02:47:02;;;;;;;9.70;2.03;;;6.60;99.90;;;;;;5036899;28;20076;-77
2022/01/22 02:49:27;;;;;;;13.77;2.08;;;6.60;99.90;;;;;;5040571;28;20395;-76
2022/01/22 02:52:03;;;;;;;12.40;2.03;;;6.60;99.90;;;;;;5016097;28;20037;-76
2022/01/22 02:54:29;;;;;;;19.33;2.65;;;6.60;99.90;;;;;;5028899;28;20044;-78
2022/01/22 02:56:55;;;;;;;10.25;1.50;;;6.60;99.90;;;;;;5057034;28;20059;-80
2022/01/22 02:59:22;;;;;;;11.07;1.90;;;6.60;99.90;;;;;;5054192;28;20040;-78
2022/01/22 03:01:49;;;;;;;12.20;2.20;;;6.60;99.90;;;;;;5048365;28;20036;-84
2022/01/22 03:04:15;;;;;;;8.63;1.77;;;6.60;99.90;;;;;;5055525;28;20053;-77
2022/01/22 03:06:40;;;;;;;8.45;1.40;;;6.60;99.90;;;;;;5046196;28;20550;-76
2022/01/22 03:09:09;;;;;;;6.75;1.80;;;6.60;99.90;;;;;;5065719;28;20455;-77
2022/01/22 03:11:44;;;;;;;11.82;1.83;;;6.60;99.90;;;;;;5051256;28;20383;-77
2022/01/22 03:14:51;;;;;;;8.68;1.55;;;6.60;99.90;;;;;;5042037;28;20049;-76
2022/01/22 03:22:24;;;;;;;7.35;1.80;;;6.60;99.90;;;;;;5070816;28;20114;-76
2022/01/22 03:27:34;;;;;;;9.55;1.30;;;6.60;99.90;;;;;;5073104;28;20461;-77
2022/01/22 03:30:00;;;;;;;8.63;1.52;;;6.60;99.90;;;;;;5034503;28;20041;-79
2022/01/22 03:32:32;;;;;;;6.70;1.45;;;6.50;99.90;;;;;;5049662;28;20106;-78
2022/01/22 03:35:08;;;;;;;10.32;1.52;;;6.60;99.90;;;;;;5049705;28;20763;-76
2022/01/22 03:37:34;;;;;;;9.90;1.50;;;6.50;99.90;;;;;;5049479;28;20045;-78
2022/01/22 03:40:00;;;;;;;4.88;1.60;;;6.50;99.90;;;;;;5048971;28;20076;-77
2022/01/22 03:42:26;;;;;;;9.13;1.70;;;6.50;99.90;;;;;;5083079;28;20076;-77
2022/01/22 03:44:52;;;;;;;14.38;1.95;;;6.50;99.90;;;;;;5029458;28;20053;-77
2022/01/22 03:47:17;;;;;;;10.38;2.20;;;6.50;99.90;;;;;;5036923;28;20460;-76
2022/01/22 03:49:43;;;;;;;10.68;2.30;;;6.50;99.90;;;;;;5048100;28;20037;-78
2022/01/22 03:52:09;;;;;;;11.43;1.92;;;6.50;99.90;;;;;;5047589;28;20053;-78
2022/01/22 03:54:35;;;;;;;15.48;1.88;;;6.50;99.90;;;;;;5049053;28;20491;-77
2022/01/22 03:57:02;;;;;;;13.57;1.85;;;6.40;99.90;;;;;;5047744;28;20057;-78
2022/01/22 03:59:30;;;;;;;11.10;1.73;;;6.50;99.90;;;;;;5047346;28;20041;-76
2022/01/22 04:04:37;;;;;;;7.13;1.30;;;6.50;99.90;;;;;;5045084;28;20049;-76
2022/01/22 04:09:42;;;;;;;6.57;1.27;;;6.50;99.90;;;;;;5036144;28;20479;-76
2022/01/22 04:12:10;;;;;;;5.93;1.23;;;6.50;99.90;;;;;;5045188;28;20049;-77
2022/01/22 04:14:44;;;;;;;6.90;1.70;;;6.50;99.90;;;;;;5039703;28;20049;-77
2022/01/22 04:17:23;;;;;;;8.93;2.08;;;6.50;99.90;;;;;;5049117;28;20044;-77
2022/01/22 04:25:07;;;;;;;7.82;1.67;;;6.50;99.90;;;;;;5047577;28;20880;-76
2022/01/22 04:27:33;;;;;;;5.85;1.33;;;6.50;99.90;;;;;;5048661;28;20044;-76
2022/01/22 04:29:59;;;;;;;6.30;1.35;;;6.50;99.90;;;;;;5041527;28;20045;-82
2022/01/22 04:32:30;;;;;;;6.45;1.65;;;6.50;99.90;;;;;;5042445;28;20137;-76
2022/01/22 04:34:56;;;;;;;5.65;1.27;;;6.40;99.90;;;;;;5035561;28;20132;-76
2022/01/22 04:37:24;;;;;;;10.52;1.73;;;6.40;99.90;;;;;;5049311;28;20148;-76
2022/01/22 04:39:51;;;;;;;8.43;1.60;;;6.40;99.90;;;;;;5059473;28;20057;-75
2022/01/22 04:42:18;;;;;;;7.90;1.00;;;6.40;99.90;;;;;;5041213;28;20091;-76
2022/01/22 04:47:26;;;;;;;5.15;1.15;;;6.40;99.90;;;;;;5053338;28;20053;-76
2022/01/22 04:52:42;;;;;;;5.50;1.58;;;6.40;99.90;;;;;;5035126;28;20049;-76
2022/01/22 04:55:09;;;;;;;7.40;1.25;;;6.30;99.90;;;;;;5020928;28;20091;-77
2022/01/22 04:57:43;;;;;;;5.82;1.05;;;6.40;99.90;;;;;;5051111;28;20047;-76
2022/01/22 05:00:11;;;;;;;6.80;1.20;;;6.40;99.90;;;;;;5053522;28;20053;-77
2022/01/22 05:02:37;;;;;;;8.50;1.10;;;6.40;99.90;;;;;;5049860;28;20114;-76
2022/01/22 05:05:05;;;;;;;9.38;1.77;;;6.40;99.90;;;;;;5051021;28;20421;-83
2022/01/22 05:07:30;;;;;;;6.75;1.13;;;6.40;99.90;;;;;;5083245;28;20061;-77
2022/01/22 05:09:56;;;;;;;8.77;1.10;;;6.40;99.90;;;;;;5048472;28;20046;-77
2022/01/22 05:12:22;;;;;;;9.40;1.52;;;6.40;99.90;;;;;;5047634;28;20118;-76
2022/01/22 05:14:48;;;;;;;11.55;1.20;;;6.40;99.90;;;;;;5049351;28;20092;-76
2022/01/22 05:17:14;;;;;;;6.65;1.15;;;6.40;99.90;;;;;;5050969;28;20056;-77
2022/01/22 05:24:44;;;;;;;9.57;1.45;;;6.40;99.90;;;;;;5049283;28;20068;-77
2022/01/22 05:38:23;;;;;;;6.78;1.20;;;6.40;99.90;;;;;;5052095;28;20053;-75
2022/01/22 05:40:49;;;;;;;8.95;1.25;;;6.40;99.90;;;;;;5049408;28;20438;-76
2022/01/22 05:43:15;;;;;;;13.48;1.98;;;6.50;99.90;;;;;;5049830;28;20049;-76
2022/01/22 05:45:42;;;;;;;11.02;1.38;;;6.40;99.90;;;;;;5047487;28;20114;-77
2022/01/22 05:48:07;;;;;;;13.98;1.50;;;6.50;99.90;;;;;;5051364;28;20161;-80
2022/01/22 05:50:48;;;;;;;10.68;1.25;;;6.40;99.90;;;;;;5047127;28;20057;-76
2022/01/22 06:01:12;;;;;;;10.98;1.60;;;6.30;99.90;;;;;;5050335;28;20056;-82
2022/01/22 06:03:38;;;;;;;14.13;1.77;;;6.40;99.90;;;;;;5047190;28;20080;-76
2022/01/22 06:06:04;;;;;;;8.30;1.30;;;6.30;99.90;;;;;;5045111;28;20050;-76
2022/01/22 06:08:30;;;;;;;10.73;1.60;;;6.30;99.90;;;;;;5042375;28;20037;-76
2022/01/22 06:10:58;;;;;;;17.10;2.20;;;6.40;99.90;;;;;;5037499;28;20057;-77
2022/01/22 06:13:33;;;;;;;8.40;1.60;;;6.30;99.90;;;;;;5045169;28;20132;-76
2022/01/22 06:15:59;;;;;;;15.27;2.33;;;6.40;99.90;;;;;;5045378;28;20056;-77
2022/01/22 06:18:24;;;;;;;15.73;1.90;;;6.30;99.90;;;;;;5049260;28;20402;-76
2022/01/22 06:20:50;;;;;;;15.57;2.00;;;6.30;99.90;;;;;;5051647;28;20064;-76
2022/01/22 06:23:16;;;;;;;13.63;1.90;;;6.30;99.90;;;;;;5042612;28;20140;-77
2022/01/22 06:25:41;;;;;;;9.38;1.83;;;6.40;99.90;;;;;;5053430;28;20191;-76
2022/01/22 06:28:07;;;;;;;10.68;2.08;;;6.30;99.90;;;;;;5043048;28;20037;-76
2022/01/22 06:30:33;;;;;;;12.98;2.60;;;6.40;99.90;;;;;;5041045;28;20244;-76
2022/01/22 06:33:00;;;;;;;10.18;2.25;;;6.40;99.90;;;;;;5043860;28;20844;-76
2022/01/22 06:35:25;;;;;;;10.32;2.05;;;6.40;99.90;;;;;;5046412;28;20041;-76
2022/01/22 06:37:51;;;;;;;14.30;2.42;;;6.40;99.90;;;;;;5067613;28;20065;-78
2022/01/22 06:42:43;;;;;;;10.88;1.98;;;6.30;99.90;;;;;;5051407;28;20103;-78
2022/01/22 06:45:09;;;;;;;8.63;2.08;;;6.30;99.90;;;;;;5042427;28;20447;-76
2022/01/22 06:47:35;;;;;;;15.10;2.13;;;6.40;99.90;;;;;;5041836;28;20051;-76
2022/01/22 06:50:01;;;;;;;13.88;2.15;;;6.40;99.90;;;;;;5047207;28;20143;-76
2022/01/22 06:52:28;;;;;;;14.13;2.60;;;6.30;99.90;;;;;;5037946;28;20163;-76
2022/01/22 06:54:54;;;;;;;12.20;2.60;;;6.40;99.90;;;;;;5047158;28;20063;-76
2022/01/22 06:57:20;;;;;;;16.35;2.70;;;6.40;99.90;;;;;;5078198;28;20053;-76
2022/01/22 06:59:47;;;;;;;11.38;2.10;;;6.40;99.90;;;;;;5048051;28;20152;-77
2022/01/22 07:02:13;;;;;;;6.22;1.58;;;6.40;99.90;;;;;;5036017;28;20103;-76
2022/01/22 07:04:39;;;;;;;6.65;1.50;;;6.40;99.90;;;;;;5041286;28;20340;-77
2022/01/22 07:07:08;;;;;;;10.70;1.90;;;6.40;99.90;;;;;;5056794;28;20098;-76
2022/01/22 07:09:33;;;;;;;5.55;1.60;;;6.40;99.90;;;;;;5040433;28;20048;-77
2022/01/22 07:11:59;;;;;;;6.10;1.50;;;6.40;99.90;;;;;;5041193;28;20096;-76
2022/01/22 07:14:26;;;;;;;3.25;1.42;;;6.40;99.90;;;;;;5048244;28;20076;-76
2022/01/22 07:16:52;;;;;;;4.97;1.65;;;6.40;99.90;;;;;;5050069;28;20049;-77
2022/01/22 07:19:19;;;;;;;10.90;2.13;;;6.40;99.90;;;;;;5030668;28;20052;-80
2022/01/22 07:21:58;;;;;;;7.20;1.77;;;6.40;99.90;;;;;;5047887;28;20049;-77
2022/01/22 07:24:26;;;;;;;8.65;2.10;;;6.40;99.90;;;;;;5022828;28;20053;-76
2022/01/22 07:26:52;;;;;;;10.77;2.40;;;6.30;99.90;;;;;;5032484;28;20053;-76
2022/01/22 07:29:18;;;;;;;6.82;2.08;;;6.40;99.90;;;;;;5046410;28;20049;-76
2022/01/22 07:31:44;;;;;;;14.73;3.03;;;6.40;99.90;;;;;;5045831;28;20274;-76
2022/01/22 07:34:10;;;;;;;8.70;2.17;;;6.40;99.90;;;;;;5044031;28;20127;-76
2022/01/22 07:36:35;;;;;;;14.48;2.38;;;6.30;99.90;;;;;;5042706;28;20394;-76
2022/01/22 07:39:03;;;;;;;12.65;2.75;;;6.30;99.90;;;;;;5041184;28;20067;-78
2022/01/22 07:41:29;;;;;;;13.30;2.40;;;6.30;99.90;;;;;;5030187;28;20136;-76
2022/01/22 07:43:55;;;;;;;10.85;2.50;;;6.30;99.90;;;;;;5061054;28;20190;-76
2022/01/22 07:46:21;;;;;;;11.07;2.50;;;6.30;99.90;;;;;;5042230;28;20029;-77
2022/01/22 07:48:47;;;;;;;17.13;3.70;;;6.30;99.90;;;;;;5045264;28;20056;-77
2022/01/22 07:51:14;;;;;;;7.70;1.92;;;6.30;99.90;;;;;;5052551;28;20049;-76
2022/01/22 07:53:40;;;;;;;8.45;2.13;;;6.30;99.90;;;;;;5042002;28;20497;-76
2022/01/22 07:56:06;;;;;;;7.97;1.88;;;6.30;99.90;;;;;;5042760;28;20132;-78
2022/01/22 07:58:32;;;;;;;7.50;1.48;;;6.30;99.90;;;;;;5043657;28;20068;-76
2022/01/22 08:00:57;;;;;;;6.80;1.50;;;6.30;99.90;;;;;;5069496;28;20055;-77
2022/01/22 08:03:26;;;;;;;5.60;1.30;;;6.30;99.90;;;;;;5045195;28;20048;-76
2022/01/22 08:05:51;;;;;;;6.22;1.80;;;6.20;99.90;;;;;;5044598;28;20414;-77
2022/01/22 08:08:17;;;;;;;4.70;1.30;;;6.30;99.90;;;;;;5048139;28;20040;-77
2022/01/22 08:10:43;;;;;;;7.07;1.65;;;6.20;99.90;;;;;;5072986;28;20055;-76
2022/01/22 08:13:08;;;;;;;8.70;1.50;;;6.20;99.90;;;;;;5072370;28;20195;-76
2022/01/22 08:15:34;;;;;;;4.03;1.65;;;6.30;99.90;;;;;;5035309;28;20068;-76
2022/01/22 08:18:02;;;;;;;7.78;1.40;;;6.20;99.90;;;;;;5044538;28;20037;-77
2022/01/22 08:20:28;;;;;;;9.15;1.90;;;6.30;99.90;;;;;;5045126;28;20061;-84
2022/01/22 08:22:54;;;;;;;5.38;1.95;;;6.20;99.90;;;;;;5049335;28;20056;-76
2022/01/22 08:25:20;;;;;;;5.13;1.67;;;6.20;99.90;;;;;;5047653;28;20487;-79
2022/01/22 08:30:29;;;;;;;6.28;1.80;;;6.20;99.90;;;;;;5032955;28;20110;-79
2022/01/22 08:33:20;;;;;;;8.88;2.33;;;6.30;99.90;;;;;;5047055;28;20564;-75
2022/01/22 08:35:53;;;;;;;9.98;1.40;;;6.30;99.90;;;;;;5045527;28;20053;-78
2022/01/22 08:38:24;;;;;;;5.40;1.50;;;6.30;99.90;;;;;;5046976;28;20048;-77
2022/01/22 08:40:50;;;;;;;6.55;1.73;;;6.30;99.90;;;;;;5047409;28;20116;-76
2022/01/22 08:43:17;;;;;;;8.27;3.08;;;6.30;99.90;;;;;;5048807;28;20052;-76
2022/01/22 08:45:43;;;;;;;9.40;1.50;;;6.30;99.90;;;;;;5043964;28;20071;-75
2022/01/22 08:48:09;;;;;;;5.45;1.45;;;6.30;99.90;;;;;;5051401;28;20060;-75
2022/01/22 08:50:35;;;;;;;8.20;1.95;;;6.30;99.90;;;;;;5041366;28;20049;-74
2022/01/22 08:53:03;;;;;;;10.23;4.32;;;6.20;99.90;;;;;;5044708;28;20058;-75
2022/01/22 08:55:28;;;;;;;8.55;2.05;;;6.30;99.90;;;;;;5049190;28;20057;-77
2022/01/22 08:57:54;;;;;;;8.48;3.50;;;6.30;99.90;;;;;;5046348;28;20061;-76
2022/01/22 09:00:21;;;;;;;15.95;5.63;;;6.30;99.90;;;;;;5048382;28;20080;-76
2022/01/22 09:02:49;;;;;;;8.85;4.68;;;6.30;99.90;;;;;;5047374;28;20041;-77
2022/01/22 09:05:19;;;;;;;15.85;6.07;;;6.30;99.90;;;;;;5045927;28;20453;-76
2022/01/22 09:07:45;;;;;;;7.90;2.63;;;6.30;99.90;;;;;;5047208;28;20053;-76
2022/01/22 09:10:12;;;;;;;19.58;5.43;;;6.30;99.90;;;;;;5043102;28;20049;-77
2022/01/22 09:12:37;;;;;;;14.60;3.30;;;6.30;99.90;;;;;;5048918;28;20136;-76
2022/01/22 09:15:04;;;;;;;20.42;4.13;;;6.30;99.90;;;;;;5045922;28;20120;-76
2022/01/22 09:17:30;;;;;;;17.25;7.60;;;6.30;99.90;;;;;;5047482;28;20099;-77
2022/01/22 09:19:58;;;;;;;12.90;3.38;;;6.30;99.90;;;;;;5029341;28;20558;-78
2022/01/22 09:22:25;;;;;;;13.80;3.20;;;6.30;99.90;;;;;;5047804;28;20383;-78
2022/01/22 09:24:52;;;;;;;11.77;5.03;;;6.40;99.90;;;;;;5048905;28;20081;-78
2022/01/22 09:27:19;;;;;;;4.53;2.42;;;6.40;99.90;;;;;;5050976;28;20405;-77
2022/01/22 09:29:45;;;;;;;10.10;3.13;;;6.40;99.90;;;;;;5032546;28;20053;-76
2022/01/22 09:32:11;;;;;;;15.65;5.88;;;6.40;99.90;;;;;;5050769;28;20098;-76
2022/01/22 09:34:37;;;;;;;12.77;3.92;;;6.40;99.90;;;;;;5052465;28;20102;-83
2022/01/22 09:37:04;;;;;;;13.10;3.13;;;6.40;99.90;;;;;;5048672;28;20071;-76
2022/01/22 09:39:29;;;;;;;14.02;2.47;;;6.40;99.90;;;;;;5037566;28;20041;-76
2022/01/22 09:41:55;;;;;;;7.32;2.15;;;6.50;99.90;;;;;;5052053;28;20629;-76
2022/01/22 09:44:21;;;;;;;8.88;2.67;;;6.40;99.90;;;;;;5047945;28;20040;-76
2022/01/22 09:46:47;;;;;;;12.27;2.92;;;6.40;99.90;;;;;;5036517;28;20051;-77
2022/01/22 09:49:13;;;;;;;7.88;1.83;;;6.50;99.90;;;;;;5051213;28;20045;-75
2022/01/22 09:51:39;;;;;;;8.25;3.55;;;6.50;99.90;;;;;;5033388;28;20041;-83
2022/01/22 09:54:11;;;;;;;14.50;3.15;;;6.50;99.90;;;;;;5051069;28;20041;-75
2022/01/22 09:56:40;;;;;;;13.73;2.78;;;6.50;99.90;;;;;;5046421;28;20087;-81
2022/01/22 09:59:06;;;;;;;17.45;3.20;;;6.50;99.90;;;;;;5047205;28;20049;-75
2022/01/22 10:01:33;;;;;;;9.95;2.63;;;6.60;99.90;;;;;;5053155;28;20060;-76
2022/01/22 10:04:02;;;;;;;10.40;2.58;;;6.60;99.90;;;;;;5030011;28;20053;-76
2022/01/22 10:06:30;;;;;;;13.00;3.17;;;6.60;99.90;;;;;;5047144;28;20033;-78
2022/01/22 10:09:09;;;;;;;9.65;3.30;;;6.60;99.90;;;;;;5052437;28;20045;-77
2022/01/22 10:11:35;;;;;;;14.52;3.28;;;6.70;99.90;;;;;;5052995;28;20044;-75
2022/01/22 10:14:02;;;;;;;12.80;3.58;;;6.70;99.90;;;;;;5048231;28;20041;-76
2022/01/22 10:16:39;;;;;;;12.10;3.67;;;6.70;99.90;;;;;;5052668;28;20538;-76
2022/01/22 10:19:19;;;;;;;15.23;3.65;;;6.70;99.90;;;;;;5051463;28;20057;-76
2022/01/22 10:22:00;;;;;;;16.17;4.38;;;6.80;99.90;;;;;;5051157;28;20083;-77
2022/01/22 10:24:40;;;;;;;13.32;3.45;;;6.90;99.90;;;;;;5052754;28;20727;-77
2022/01/22 10:27:27;;;;;;;14.60;3.90;;;6.90;99.90;;;;;;5082475;28;20052;-75
2022/01/22 10:29:58;;;;;;;;;;;6.90;99.90;;;;;;5045658;28;20116;-75
2022/01/22 10:32:42;;;;;;;16.17;3.97;;;7.00;99.90;;;;;;5046462;28;19921;-76
2022/01/22 10:35:16;;;;;;;9.40;3.55;;;7.10;99.90;;;;;;5041938;28;20045;-76
2022/01/22 10:37:43;;;;;;;19.40;3.92;;;7.10;99.90;;;;;;5049303;28;20045;-83
2022/01/22 10:40:26;;;;;;;19.55;4.03;;;7.10;99.90;;;;;;5051819;28;20079;-77
2022/01/22 10:43:09;;;;;;;16.90;4.50;;;7.10;99.90;;;;;;5047565;28;20102;-80
2022/01/22 10:45:39;;;;;;;17.77;5.32;;;7.10;99.90;;;;;;5047711;28;20103;-81
2022/01/22 10:48:22;;;;;;;18.65;4.10;;;7.10;99.90;;;;;;5042998;28;20041;-79
2022/01/22 10:51:06;;;;;;;15.75;3.80;;;7.10;99.90;;;;;;5043500;28;20562;-78
2022/01/22 10:53:43;;;;;;;15.23;4.82;;;7.00;99.90;;;;;;5040423;28;20491;-77
2022/01/22 10:56:11;;;;;;;14.52;3.58;;;7.00;99.90;;;;;;5023698;28;20142;-77
2022/01/22 10:59:00;;;;;;;12.98;3.75;;;7.00;99.90;;;;;;5010791;28;20411;-77
2022/01/22 11:01:55;;;;;;;16.08;3.47;;;7.00;99.90;;;;;;5019250;28;20056;-80
2022/01/22 11:04:24;;;;;;;23.98;5.22;;;7.00;99.90;;;;;;4989853;28;20057;-81
2022/01/22 11:06:58;;;;;;;13.90;4.60;;;6.90;99.90;;;;;;5008434;28;20042;-76
2022/01/22 11:09:26;;;;;;;12.75;3.70;;;7.00;99.90;;;;;;5027800;28;20053;-76
2022/01/22 11:11:53;;;;;;;11.35;3.85;;;7.00;99.90;;;;;;5010785;28;20360;-76
2022/01/22 11:14:19;;;;;;;15.02;4.28;;;7.00;99.90;;;;;;5025031;28;20087;-78
2022/01/22 11:16:47;;;;;;;15.70;5.53;;;7.00;99.90;;;;;;5007051;28;20533;-83
2022/01/22 11:19:19;;;;;;;11.38;4.35;;;7.00;99.90;;;;;;5005604;28;20037;-79
2022/01/22 11:21:48;;;;;;;18.42;5.22;;;7.00;99.90;;;;;;5004508;28;20049;-83
2022/01/22 11:24:17;;;;;;;14.13;3.95;;;7.00;99.90;;;;;;5026188;28;20045;-78
2022/01/22 11:26:48;;;;;;;13.93;4.20;;;7.00;99.90;;;;;;5035622;28;20209;-77
2022/01/22 11:29:15;;;;;;;25.25;4.63;;;7.00;99.90;;;;;;5026057;28;20045;-76
2022/01/22 11:31:45;;;;;;;15.57;4.22;;;6.90;99.90;;;;;;5021626;28;20491;-78
2022/01/22 11:34:14;;;;;;;12.10;3.88;;;6.90;99.90;;;;;;5026601;28;20042;-76
2022/01/22 11:36:52;;;;;;;19.38;4.28;;;6.90;99.90;;;;;;5014794;28;20057;-78
2022/01/22 11:39:21;;;;;;;20.65;5.18;;;6.90;99.90;;;;;;5034599;28;20136;-76
2022/01/22 11:41:52;;;;;;;14.40;4.18;;;6.90;99.90;;;;;;5025550;28;20073;-83
2022/01/22 11:44:35;;;;;;;19.55;5.97;;;6.90;99.90;;;;;;5029502;28;20045;-76
2022/01/22 11:47:27;;;;;;;17.23;4.10;;;6.90;99.90;;;;;;5005392;28;20120;-78
2022/01/22 11:50:12;;;;;;;21.30;4.45;;;6.90;99.90;;;;;;5004613;28;20052;-77
2022/01/22 11:52:40;;;;;;;23.33;6.90;;;6.80;99.90;;;;;;5009564;28;20194;-79
2022/01/22 11:55:13;;;;;;;24.13;5.45;;;6.90;99.90;;;;;;5020692;28;20067;-79
2022/01/22 11:57:41;;;;;;;15.40;4.32;;;6.90;99.90;;;;;;5044882;28;20048;-75
2022/01/22 12:00:26;;;;;;;21.90;5.03;;;6.80;99.90;;;;;;5035854;28;20049;-78
2022/01/22 12:03:07;;;;;;;14.15;5.18;;;6.90;99.90;;;;;;5042046;28;20144;-76
2022/01/22 12:05:53;;;;;;;19.02;4.95;;;6.80;99.90;;;;;;5032462;28;20049;-76
2022/01/22 12:08:23;;;;;;;16.55;4.70;;;6.80;99.90;;;;;;5044642;28;20137;-76
2022/01/22 12:16:42;;;;;;;23.42;5.85;;;6.90;99.90;;;;;;5054400;28;20060;-76
2022/01/22 12:19:36;;;;;;;17.45;5.53;;;6.90;99.90;;;;;;5039979;28;20520;-76
2022/01/22 12:22:28;;;;;;;21.42;6.78;;;6.90;99.90;;;;;;5042296;28;20045;-76
2022/01/22 12:24:54;;;;;;;18.13;5.97;;;6.80;99.90;;;;;;5045034;28;20045;-76
2022/01/22 12:27:49;;;;;;;15.10;5.13;;;6.80;99.90;;;;;;5042912;28;20036;-76
2022/01/22 12:30:31;;;;;;;17.70;6.18;;;6.80;99.90;;;;;;5029227;28;20056;-76
2022/01/22 12:32:59;;;;;;;18.90;5.30;;;6.80;99.90;;;;;;5038365;28;20044;-77
2022/01/22 12:35:36;;;;;;;16.05;5.88;;;6.80;99.90;;;;;;5041198;28;20096;-77
2022/01/22 12:38:36;;;;;;;20.33;6.20;;;6.90;99.90;;;;;;5043386;28;20122;-77
2022/01/22 12:41:25;;;;;;;17.50;5.75;;;6.80;99.90;;;;;;5021813;28;20071;-77
2022/01/22 12:43:51;;;;;;;15.90;8.20;;;6.80;99.90;;;;;;5041744;28;20524;-81
2022/01/22 12:46:17;;;;;;;19.88;7.28;;;6.90;99.90;;;;;;5043530;28;20045;-77
2022/01/22 12:48:43;;;;;;;21.50;7.05;;;7.00;99.90;;;;;;5032957;28;20136;-77
2022/01/22 12:51:10;;;;;;;17.83;6.10;;;7.00;99.90;;;;;;5046572;28;20048;-77
2022/01/22 12:53:40;;;;;;;22.30;6.50;;;7.00;99.90;;;;;;5045017;28;20143;-78
2022/01/22 12:58:38;;;;;;;24.58;7.38;;;6.90;99.90;;;;;;5046303;28;21601;-76
2022/01/22 13:01:18;;;;;;;23.17;6.47;;;7.00;99.90;;;;;;5046038;28;20525;-76
2022/01/22 13:03:47;;;;;;;23.70;7.40;;;7.00;99.90;;;;;;5049668;28;20482;-76
2022/01/22 13:06:14;;;;;;;20.10;7.00;;;6.90;99.90;;;;;;5047893;28;20493;-76
2022/01/22 13:08:40;;;;;;;19.70;7.25;;;6.90;99.90;;;;;;5047168;28;20052;-77
2022/01/22 13:11:08;;;;;;;30.83;6.43;;;7.00;99.90;;;;;;5046610;28;20156;-78
2022/01/22 13:13:39;;;;;;;20.65;6.25;;;7.00;99.90;;;;;;5079200;28;20056;-79
2022/01/22 13:16:09;;;;;;;23.63;6.22;;;7.00;99.90;;;;;;5039311;28;20398;-76
2022/01/22 13:19:13;;;;;;;21.65;6.97;;;7.10;99.90;;;;;;5060561;28;20136;-79
2022/01/22 13:21:47;;;;;;;28.70;6.63;;;7.10;99.90;;;;;;5044377;28;20064;-78
2022/01/22 13:24:12;;;;;;;19.48;6.25;;;7.10;99.90;;;;;;5030969;28;20053;-77
2022/01/22 13:27:10;;;;;;;22.65;7.03;;;7.10;99.90;;;;;;5047545;28;20333;-76
2022/01/22 13:29:39;;;;;;;15.25;5.85;;;7.10;99.90;;;;;;5046267;28;20082;-81
2022/01/22 13:32:47;;;;;;;30.75;5.88;;;7.00;99.90;;;;;;5049484;28;20057;-80
2022/01/22 13:38:57;;;;;;;17.08;4.65;;;7.00;99.90;;;;;;5052238;28;20048;-77
2022/01/22 13:48:58;;;;;;;13.90;4.10;;;6.80;99.90;;;;;;5045876;28;20702;-77
2022/01/22 13:51:28;;;;;;;16.08;3.85;;;6.80;99.90;;;;;;5043661;28;20136;-79
2022/01/22 13:53:59;;;;;;;11.68;4.18;;;6.70;99.90;;;;;;5046043;28;20049;-80
2022/01/22 13:56:47;;;;;;;16.60;5.60;;;6.70;99.90;;;;;;5048608;28;20057;-79
2022/01/22 13:59:21;;;;;;;20.42;6.43;;;6.80;99.90;;;;;;5047814;28;20049;-78
2022/01/22 14:02:10;;;;;;;11.70;3.97;;;6.80;99.90;;;;;;5043497;28;20110;-78
2022/01/22 14:04:46;;;;;;;15.38;4.60;;;6.80;99.90;;;;;;5042588;28;20045;-79
2022/01/22 14:07:23;;;;;;;21.05;6.80;;;6.80;99.90;;;;;;5045791;28;20143;-77
2022/01/22 14:10:03;;;;;;;13.82;3.08;;;6.80;99.90;;;;;;5051559;28;21217;-78
2022/01/22 14:12:47;;;;;;;13.27;3.50;;;6.80;99.90;;;;;;5044120;28;20053;-79
2022/01/22 14:15:16;;;;;;;13.55;3.78;;;6.80;99.90;;;;;;5043191;28;20103;-77
2022/01/22 14:20:47;;;;;;;19.70;4.78;;;6.70;99.90;;;;;;5049992;28;20051;-78
2022/01/22 14:23:23;;;;;;;14.32;4.32;;;6.80;99.90;;;;;;5044770;28;20049;-78
2022/01/22 14:26:11;;;;;;;19.52;5.50;;;6.80;99.90;;;;;;5042826;28;20481;-79
2022/01/22 14:28:37;;;;;;;16.35;4.57;;;6.80;99.90;;;;;;5071329;28;20506;-78
2022/01/22 14:31:24;;;;;;;12.50;3.78;;;6.70;99.90;;;;;;5039688;28;20052;-83
2022/01/22 14:33:50;;;;;;;13.90;4.70;;;6.70;99.90;;;;;;5049542;28;20053;-77
2022/01/22 14:36:20;;;;;;;18.77;7.00;;;6.60;99.90;;;;;;5025260;28;20857;-77
2022/01/22 14:38:55;;;;;;;22.60;6.32;;;6.60;99.90;;;;;;5047714;28;20061;-77
2022/01/22 14:46:55;;;;;;;23.35;8.85;;;6.50;99.90;;;;;;5068266;28;20049;-80
2022/01/22 14:49:31;;;;;;;16.88;6.68;;;6.50;99.90;;;;;;5068088;28;20076;-78
2022/01/22 14:51:58;;;;;;;22.85;5.63;;;6.60;99.90;;;;;;5046485;28;20057;-78
2022/01/22 14:54:25;;;;;;;176.43;126.82;;;6.50;99.90;;;;;;5042978;28;20073;-79
2022/01/22 14:56:51;;;;;;;18.63;8.88;;;6.40;99.90;;;;;;5015804;28;20054;-78
2022/01/22 14:59:19;;;;;;;11.88;4.30;;;6.50;99.90;;;;;;5021665;28;20054;-78
2022/01/22 15:01:45;;;;;;;19.63;14.73;;;6.40;99.90;;;;;;5007933;28;20060;-77